高雄國際航空站 - 塔台/地面席

METAR RCKH 190000Z 35004KT 330V050 5000 HZ FEW012 SCT040 BKN060 20/16 Q1020 NOSIG RMK A3014=

站台狀態:Online
最後更新:2019-01-19 08:15:02